Time;durP1;ratioP1;P1;durP2;ratioP2;P2;SDS_P1;SDS_P2;PMS_P1;PMS_P2;Temp;Humidity;BMP_temperature;BMP_pressure;BME280_temperature;BME280_humidity;BME280_pressure;Samples;Min_cycle;Max_cycle;Signal;HPM_P1;HPM_P2
2021/05/09 00:02:09;;;;;;;1.70;1.60;;;9.60;99.90;;;;;;5061726;28;20270;-81
2021/05/09 00:04:34;;;;;;;2.23;1.50;;;9.60;99.90;;;;;;5079994;28;20556;-81
2021/05/09 00:07:00;;;;;;;2.30;1.87;;;9.60;99.90;;;;;;5061997;28;20186;-81
2021/05/09 00:09:26;;;;;;;1.60;1.43;;;9.60;99.90;;;;;;5080151;28;20208;-81
2021/05/09 00:11:52;;;;;;;2.53;1.60;;;9.60;99.90;;;;;;5061714;28;20193;-81
2021/05/09 00:14:17;;;;;;;1.77;1.10;;;9.60;99.90;;;;;;5080317;28;20196;-81
2021/05/09 00:16:43;;;;;;;1.57;1.40;;;9.60;99.90;;;;;;5080452;28;20173;-81
2021/05/09 00:19:09;;;;;;;1.70;1.30;;;9.70;99.90;;;;;;5061995;28;20178;-81
2021/05/09 00:21:35;;;;;;;1.37;1.27;;;9.60;99.90;;;;;;5079804;28;20208;-81
2021/05/09 00:24:00;;;;;;;2.03;1.50;;;9.60;99.90;;;;;;5060498;28;20213;-80
2021/05/09 00:26:26;;;;;;;1.10;1.00;;;9.60;99.90;;;;;;5078304;28;20194;-81
2021/05/09 00:28:52;;;;;;;1.40;1.10;;;9.60;99.90;;;;;;5061865;28;20212;-81
2021/05/09 00:31:17;;;;;;;1.60;1.13;;;9.60;99.90;;;;;;5061599;28;20570;-81
2021/05/09 00:33:43;;;;;;;1.20;1.10;;;9.60;99.90;;;;;;5061665;28;20181;-81
2021/05/09 00:36:09;;;;;;;1.50;1.10;;;9.50;99.90;;;;;;5078749;28;20226;-81
2021/05/09 00:38:34;;;;;;;3.20;1.20;;;9.50;99.90;;;;;;5061455;28;20230;-81
2021/05/09 00:41:00;;;;;;;2.20;1.20;;;9.50;99.90;;;;;;5060980;28;20633;-81
2021/05/09 00:43:26;;;;;;;1.97;1.53;;;9.50;99.90;;;;;;5060609;28;20273;-81
2021/05/09 00:45:53;;;;;;;1.70;1.20;;;9.40;99.90;;;;;;5079180;28;20687;-81
2021/05/09 00:48:19;;;;;;;1.50;1.40;;;9.30;99.90;;;;;;5078875;28;20174;-81
2021/05/09 00:50:44;;;;;;;1.90;1.57;;;9.30;99.90;;;;;;5061279;28;20240;-81
2021/05/09 00:53:13;;;;;;;2.03;1.30;;;9.20;99.90;;;;;;5061106;28;20178;-81
2021/05/09 00:55:39;;;;;;;2.60;1.30;;;9.10;99.90;;;;;;5060308;28;20212;-80
2021/05/09 00:58:10;;;;;;;2.80;1.50;;;9.00;99.90;;;;;;5061164;28;20177;-81
2021/05/09 01:00:36;;;;;;;2.30;1.60;;;8.90;99.90;;;;;;5079261;28;20685;-81
2021/05/09 01:03:07;;;;;;;3.57;1.50;;;8.90;99.90;;;;;;5060674;28;20230;-81
2021/05/09 01:05:33;;;;;;;1.30;1.20;;;8.90;99.90;;;;;;5060973;28;20192;-81
2021/05/09 01:08:00;;;;;;;1.63;1.30;;;8.80;99.90;;;;;;5078292;28;20176;-81
2021/05/09 01:10:26;;;;;;;1.43;1.23;;;8.80;99.90;;;;;;5060288;28;20233;-81
2021/05/09 01:12:51;;;;;;;2.40;1.50;;;8.80;99.90;;;;;;5060315;28;20190;-80
2021/05/09 01:15:18;;;;;;;2.83;1.30;;;8.80;99.90;;;;;;5060213;28;20227;-80
2021/05/09 01:17:43;;;;;;;1.70;1.13;;;8.80;99.90;;;;;;5060579;28;20552;-81
2021/05/09 01:20:15;;;;;;;1.30;1.20;;;8.80;99.90;;;;;;5078080;28;20195;-81
2021/05/09 01:22:42;;;;;;;1.37;1.23;;;8.90;99.90;;;;;;5059980;28;20185;-81
2021/05/09 01:25:08;;;;;;;1.87;1.37;;;8.90;99.90;;;;;;5077251;28;20180;-80
2021/05/09 01:27:34;;;;;;;1.20;1.10;;;8.90;99.90;;;;;;5078477;28;20173;-80
2021/05/09 01:30:00;;;;;;;1.27;1.17;;;8.90;99.90;;;;;;5077631;28;20682;-80
2021/05/09 01:32:26;;;;;;;1.63;1.50;;;8.90;99.90;;;;;;5077684;28;20182;-81
2021/05/09 01:34:52;;;;;;;1.93;1.20;;;8.90;99.90;;;;;;5059384;28;20206;-80
2021/05/09 01:37:18;;;;;;;2.30;1.17;;;8.90;99.90;;;;;;5059223;28;20181;-80
2021/05/09 01:39:44;;;;;;;1.40;1.10;;;8.80;99.90;;;;;;5077214;28;20169;-80
2021/05/09 01:42:09;;;;;;;2.40;1.47;;;8.70;99.90;;;;;;5059328;28;20610;-80
2021/05/09 01:44:35;;;;;;;1.33;1.20;;;8.70;99.90;;;;;;5058754;28;20211;-80
2021/05/09 01:47:00;;;;;;;1.20;1.00;;;8.60;99.90;;;;;;5058652;28;20181;-80
2021/05/09 01:49:26;;;;;;;1.47;1.30;;;8.60;99.90;;;;;;5058333;28;20567;-80
2021/05/09 01:51:54;;;;;;;1.70;1.57;;;8.50;99.90;;;;;;5057726;28;20201;-80
2021/05/09 01:54:20;;;;;;;3.03;1.40;;;8.50;99.90;;;;;;5057797;28;20181;-80
2021/05/09 01:56:45;;;;;;;2.63;1.40;;;8.50;99.90;;;;;;5075421;28;20583;-80
2021/05/09 01:59:12;;;;;;;1.27;1.17;;;8.50;99.90;;;;;;5057482;28;20690;-80
2021/05/09 02:01:37;;;;;;;1.33;1.00;;;8.60;99.90;;;;;;5083686;28;20224;-80
2021/05/09 02:04:03;;;;;;;4.37;1.40;;;8.60;99.90;;;;;;5076663;28;20232;-82
2021/05/09 02:06:29;;;;;;;1.43;1.20;;;8.60;99.90;;;;;;5099201;28;20185;-81
2021/05/09 02:08:55;;;;;;;1.10;1.00;;;8.70;99.90;;;;;;5093178;28;20189;-81
2021/05/09 02:11:21;;;;;;;1.90;1.10;;;8.70;99.90;;;;;;5078055;28;20206;-81
2021/05/09 02:13:47;;;;;;;1.63;1.30;;;8.70;99.90;;;;;;5077860;28;20190;-81
2021/05/09 02:16:12;;;;;;;1.83;1.30;;;8.70;99.90;;;;;;5077908;28;20236;-81
2021/05/09 02:18:38;;;;;;;2.93;1.17;;;8.70;99.90;;;;;;5078040;28;20178;-80
2021/05/09 02:21:04;;;;;;;1.77;1.10;;;8.60;99.90;;;;;;5059076;28;20212;-81
2021/05/09 02:23:30;;;;;;;1.10;0.90;;;8.50;99.90;;;;;;5077510;28;20178;-81
2021/05/09 02:25:55;;;;;;;2.10;1.10;;;8.50;99.90;;;;;;5058484;28;20185;-80
2021/05/09 02:28:21;;;;;;;3.83;1.30;;;8.40;99.90;;;;;;5058085;28;20620;-81
2021/05/09 02:30:47;;;;;;;4.60;1.27;;;8.40;99.90;;;;;;5058366;28;20209;-80
2021/05/09 02:33:13;;;;;;;3.00;1.30;;;8.40;99.90;;;;;;5076486;28;20179;-81
2021/05/09 02:35:39;;;;;;;1.20;1.10;;;8.40;99.90;;;;;;5077580;28;20201;-81
2021/05/09 02:38:04;;;;;;;1.53;1.30;;;8.40;99.90;;;;;;5080888;28;20176;-80
2021/05/09 02:40:30;;;;;;;1.40;1.30;;;8.30;99.90;;;;;;5062911;28;20686;-81
2021/05/09 02:42:56;;;;;;;1.40;1.30;;;8.30;99.90;;;;;;5080635;28;20186;-81
2021/05/09 02:45:22;;;;;;;1.60;1.07;;;8.20;99.90;;;;;;5062402;28;20227;-81
2021/05/09 02:47:48;;;;;;;2.63;1.10;;;8.30;99.90;;;;;;5062069;28;20209;-81
2021/05/09 02:50:14;;;;;;;1.27;1.17;;;8.20;99.90;;;;;;5080799;28;20201;-80
2021/05/09 02:52:40;;;;;;;1.50;1.27;;;8.20;99.90;;;;;;5062693;28;20719;-80
2021/05/09 02:55:06;;;;;;;1.40;1.13;;;8.20;99.90;;;;;;5062031;28;20296;-81
2021/05/09 02:57:32;;;;;;;1.73;1.13;;;8.10;99.90;;;;;;5079810;28;20604;-81
2021/05/09 02:59:58;;;;;;;3.67;1.20;;;8.10;99.90;;;;;;5062010;28;20188;-81
2021/05/09 03:02:23;;;;;;;1.30;1.20;;;8.10;99.90;;;;;;5080453;28;20176;-81
2021/05/09 03:04:49;;;;;;;1.20;1.10;;;8.20;99.90;;;;;;5080257;28;20166;-81
2021/05/09 03:07:15;;;;;;;1.37;1.20;;;8.20;99.90;;;;;;5061900;28;20192;-81
2021/05/09 03:09:40;;;;;;;1.10;0.83;;;8.20;99.90;;;;;;5062037;28;20180;-80
2021/05/09 03:12:07;;;;;;;1.00;1.00;;;8.20;99.90;;;;;;5062130;28;20211;-81
2021/05/09 03:14:33;;;;;;;1.27;1.00;;;8.20;99.90;;;;;;5079589;28;20548;-81
2021/05/09 03:16:58;;;;;;;1.83;0.90;;;8.20;99.90;;;;;;5080049;28;20205;-81
2021/05/09 03:19:24;;;;;;;1.37;1.23;;;8.20;99.90;;;;;;5061888;28;20718;-81
2021/05/09 03:21:50;;;;;;;4.53;1.10;;;8.20;99.90;;;;;;5062130;28;20300;-81
2021/05/09 03:24:15;;;;;;;1.53;1.10;;;8.20;99.90;;;;;;5061616;28;20588;-81
2021/05/09 03:26:41;;;;;;;1.63;0.80;;;8.10;99.90;;;;;;5079973;28;20252;-81
2021/05/09 03:29:07;;;;;;;1.20;1.10;;;8.10;99.90;;;;;;5079852;28;20201;-81
2021/05/09 03:31:34;;;;;;;4.40;1.17;;;8.10;99.90;;;;;;5079917;28;20196;-81
2021/05/09 03:34:00;;;;;;;1.37;1.07;;;8.00;99.90;;;;;;5062027;28;20628;-82
2021/05/09 03:36:26;;;;;;;2.97;1.03;;;8.00;99.90;;;;;;5079586;28;20213;-81
2021/05/09 03:38:51;;;;;;;1.20;1.00;;;8.00;99.90;;;;;;5061455;28;20647;-81
2021/05/09 03:41:17;;;;;;;1.40;1.10;;;8.00;99.90;;;;;;5061610;28;20260;-81
2021/05/09 03:43:44;;;;;;;1.10;1.00;;;8.00;99.90;;;;;;5079589;28;20169;-81
2021/05/09 03:46:10;;;;;;;1.47;0.93;;;8.00;99.90;;;;;;5079273;28;20169;-81
2021/05/09 03:48:35;;;;;;;1.10;1.00;;;8.00;99.90;;;;;;5060501;28;20209;-81
2021/05/09 03:51:01;;;;;;;1.67;1.13;;;8.10;99.90;;;;;;5062044;28;20207;-81
2021/05/09 03:53:29;;;;;;;1.00;0.90;;;8.00;99.90;;;;;;5080131;28;20197;-81
2021/05/09 03:55:55;;;;;;;1.30;1.20;;;8.00;99.90;;;;;;5061380;28;20708;-81
2021/05/09 03:58:20;;;;;;;1.33;1.20;;;7.90;99.90;;;;;;5079658;28;20169;-81
2021/05/09 04:00:46;;;;;;;1.10;0.90;;;7.90;99.90;;;;;;5080423;28;20224;-81
2021/05/09 04:03:20;;;;;;;1.20;0.97;;;7.90;99.90;;;;;;5061653;28;20173;-80
2021/05/09 04:05:47;;;;;;;1.10;1.00;;;7.90;99.90;;;;;;5060851;28;20177;-81
2021/05/09 04:08:12;;;;;;;2.40;0.90;;;8.00;99.90;;;;;;5061875;28;20199;-81
2021/05/09 04:10:38;;;;;;;1.93;1.20;;;8.00;99.90;;;;;;5079555;28;20666;-81
2021/05/09 04:13:04;;;;;;;0.80;0.80;;;8.10;99.90;;;;;;5079203;28;20191;-81
2021/05/09 04:15:29;;;;;;;1.07;0.97;;;8.10;99.90;;;;;;5079013;28;20197;-81
2021/05/09 04:17:55;;;;;;;0.97;0.97;;;8.10;99.90;;;;;;5061110;28;20173;-80
2021/05/09 04:20:20;;;;;;;1.33;0.80;;;8.10;99.90;;;;;;5078832;28;20185;-81
2021/05/09 04:22:46;;;;;;;1.27;1.17;;;8.20;99.90;;;;;;5060462;28;20165;-81
2021/05/09 04:25:12;;;;;;;0.80;0.80;;;8.20;99.90;;;;;;5079109;28;20175;-81
2021/05/09 04:27:37;;;;;;;4.20;1.10;;;8.20;99.90;;;;;;5061323;28;20211;-81
2021/05/09 04:30:03;;;;;;;1.27;0.93;;;8.30;99.90;;;;;;5060692;28;20181;-81
2021/05/09 04:32:29;;;;;;;1.10;0.90;;;8.20;99.90;;;;;;5078622;28;20177;-80
2021/05/09 04:34:55;;;;;;;1.50;1.30;;;8.30;99.90;;;;;;5078282;28;20208;-81
2021/05/09 04:37:20;;;;;;;2.83;1.00;;;8.30;99.90;;;;;;5060539;28;20239;-81
2021/05/09 04:39:46;;;;;;;0.90;0.67;;;8.30;99.90;;;;;;5060649;28;20181;-81
2021/05/09 04:42:11;;;;;;;1.13;1.00;;;8.40;99.90;;;;;;5078259;28;20660;-80
2021/05/09 04:44:37;;;;;;;0.70;0.70;;;8.40;99.90;;;;;;5078034;28;20244;-81
2021/05/09 04:47:03;;;;;;;1.53;1.00;;;8.50;99.90;;;;;;5078515;28;20188;-81
2021/05/09 04:49:28;;;;;;;1.57;1.00;;;8.60;99.90;;;;;;5060479;28;20177;-81
2021/05/09 04:51:54;;;;;;;1.90;1.00;;;8.70;99.90;;;;;;5077739;28;20659;-80
2021/05/09 04:54:21;;;;;;;1.03;0.80;;;8.70;99.90;;;;;;5060171;28;20184;-80
2021/05/09 04:56:46;;;;;;;2.43;0.83;;;8.90;99.90;;;;;;5060092;28;20585;-81
2021/05/09 04:59:12;;;;;;;0.80;0.70;;;8.90;99.90;;;;;;5076970;28;20252;-80
2021/05/09 05:01:37;;;;;;;1.23;1.00;;;9.00;99.90;;;;;;5077856;28;20194;-81
2021/05/09 05:04:03;;;;;;;1.73;0.87;;;9.10;99.90;;;;;;5059081;28;20185;-81
2021/05/09 05:06:29;;;;;;;1.23;1.00;;;9.30;99.90;;;;;;5077418;28;20545;-80
2021/05/09 05:08:55;;;;;;;0.97;0.87;;;9.30;99.90;;;;;;5077425;28;20652;-80
2021/05/09 05:11:20;;;;;;;2.07;1.20;;;9.40;99.90;;;;;;5076847;28;20284;-80
2021/05/09 05:13:46;;;;;;;1.20;0.90;;;9.60;99.90;;;;;;5076146;28;20182;-79
2021/05/09 05:16:11;;;;;;;0.80;0.70;;;9.70;99.90;;;;;;5057679;28;20359;-80
2021/05/09 05:18:37;;;;;;;0.70;0.70;;;9.80;99.90;;;;;;5087332;28;20177;-79
2021/05/09 05:21:06;;;;;;;0.67;0.67;;;10.00;99.90;;;;;;5097952;28;20237;-80
2021/05/09 05:23:34;;;;;;;2.00;0.80;;;10.20;99.90;;;;;;5081434;28;21124;-79
2021/05/09 05:25:59;;;;;;;0.90;0.60;;;10.40;99.90;;;;;;5084733;28;20230;-80
2021/05/09 05:28:25;;;;;;;0.80;0.70;;;10.50;99.90;;;;;;5077576;28;20175;-80
2021/05/09 05:30:51;;;;;;;0.97;0.83;;;10.70;99.90;;;;;;5076925;28;20199;-80
2021/05/09 05:33:34;;;;;;;1.67;0.80;;;10.80;99.90;;;;;;5077335;28;20180;-80
2021/05/09 05:36:02;;;;;;;1.00;0.77;;;10.90;99.90;;;;;;5076655;28;20591;-80
2021/05/09 05:38:28;;;;;;;1.43;0.77;;;11.00;99.90;;;;;;5076612;28;20170;-80
2021/05/09 05:40:55;;;;;;;0.70;0.57;;;11.20;99.90;;;;;;5059120;28;20666;-80
2021/05/09 05:43:28;;;;;;;1.10;0.80;;;11.20;99.90;;;;;;5077144;28;20173;-80
2021/05/09 05:45:56;;;;;;;2.53;0.83;;;11.30;99.90;;;;;;5077876;28;20529;-80
2021/05/09 05:48:22;;;;;;;2.10;0.70;;;11.30;99.90;;;;;;5059386;28;20185;-80
2021/05/09 05:50:49;;;;;;;1.30;0.70;;;11.50;99.90;;;;;;5077407;28;20197;-80
2021/05/09 05:53:23;;;;;;;1.47;0.70;;;11.50;99.90;;;;;;5077183;28;20188;-80
2021/05/09 05:55:50;;;;;;;1.00;0.80;;;11.60;99.90;;;;;;5076933;28;20195;-80
2021/05/09 05:58:17;;;;;;;4.10;0.60;;;11.70;99.90;;;;;;5076835;28;20267;-80
2021/05/09 06:00:43;;;;;;;0.77;0.67;;;11.90;99.90;;;;;;5059301;28;20220;-82
2021/05/09 06:03:10;;;;;;;2.13;0.80;;;11.90;99.90;;;;;;5058832;28;20627;-80
2021/05/09 06:05:36;;;;;;;1.30;0.73;;;12.00;99.90;;;;;;5076865;28;20634;-80
2021/05/09 06:08:02;;;;;;;1.17;0.70;;;12.10;99.90;;;;;;5077634;28;20181;-81
2021/05/09 06:10:27;;;;;;;1.07;0.80;;;12.30;99.90;;;;;;5058297;28;20210;-80
2021/05/09 06:12:54;;;;;;;3.67;0.87;;;12.50;99.90;;;;;;5077095;28;20173;-80
2021/05/09 06:15:20;;;;;;;0.73;0.63;;;12.60;99.90;;;;;;5058821;28;20263;-81
2021/05/09 06:17:45;;;;;;;1.07;0.80;;;12.70;99.90;;;;;;5076813;28;20172;-81
2021/05/09 06:20:12;;;;;;;0.77;0.60;;;12.90;99.90;;;;;;5076872;28;20184;-80
2021/05/09 06:22:37;;;;;;;0.97;0.60;;;13.10;99.90;;;;;;5058664;28;20238;-81
2021/05/09 06:25:04;;;;;;;0.50;0.50;;;13.30;99.90;;;;;;5076542;28;20177;-80
2021/05/09 06:27:30;;;;;;;1.00;0.70;;;13.50;99.90;;;;;;5077365;28;20311;-81
2021/05/09 06:29:57;;;;;;;0.57;0.50;;;13.70;99.50;;;;;;5058369;28;20671;-81
2021/05/09 06:32:22;;;;;;;1.30;0.80;;;13.90;98.60;;;;;;5059062;28;20191;-80
2021/05/09 06:34:48;;;;;;;1.90;0.70;;;14.00;98.10;;;;;;5058691;28;20201;-80
2021/05/09 06:37:14;;;;;;;0.80;0.47;;;14.20;98.20;;;;;;5076734;28;20188;-80
2021/05/09 06:39:40;;;;;;;0.70;0.60;;;14.40;97.30;;;;;;5077096;28;20256;-81
2021/05/09 06:42:07;;;;;;;0.60;0.50;;;14.50;96.60;;;;;;5058442;28;20228;-81
2021/05/09 06:44:36;;;;;;;1.10;0.60;;;14.70;96.30;;;;;;5076481;28;20623;-81
2021/05/09 06:47:02;;;;;;;0.70;0.63;;;14.80;96.10;;;;;;5076604;28;20172;-80
2021/05/09 06:49:31;;;;;;;0.70;0.70;;;15.00;95.50;;;;;;5076345;28;20161;-80
2021/05/09 06:51:57;;;;;;;0.87;0.73;;;15.20;94.90;;;;;;5076189;28;20191;-80
2021/05/09 06:54:23;;;;;;;0.63;0.53;;;15.40;94.50;;;;;;5076116;28;20260;-80
2021/05/09 06:56:49;;;;;;;1.00;0.67;;;15.60;93.30;;;;;;5058509;28;20561;-81
2021/05/09 06:59:17;;;;;;;1.93;0.60;;;15.70;92.80;;;;;;5076609;28;20173;-80
2021/05/09 07:01:42;;;;;;;0.50;0.50;;;15.90;92.40;;;;;;5075949;28;20192;-80
2021/05/09 07:04:08;;;;;;;0.93;0.60;;;16.10;92.40;;;;;;5058222;28;20177;-80
2021/05/09 07:06:35;;;;;;;1.53;0.83;;;16.20;92.20;;;;;;5075879;28;20173;-81
2021/05/09 07:09:01;;;;;;;1.13;0.77;;;16.40;92.80;;;;;;5075855;28;20228;-81
2021/05/09 07:11:27;;;;;;;0.87;0.70;;;16.60;92.40;;;;;;5057853;28;20205;-80
2021/05/09 07:13:53;;;;;;;0.57;0.50;;;16.70;92.00;;;;;;5058243;28;20196;-81
2021/05/09 07:16:20;;;;;;;0.70;0.57;;;16.80;91.40;;;;;;5057586;28;20204;-80
2021/05/09 07:18:46;;;;;;;1.20;0.77;;;17.00;91.10;;;;;;5057882;28;20624;-80
2021/05/09 07:21:15;;;;;;;1.90;0.60;;;17.10;90.50;;;;;;5057463;28;20292;-80
2021/05/09 07:23:50;;;;;;;0.80;0.80;;;17.20;90.80;;;;;;5079025;28;20169;-81
2021/05/09 07:26:16;;;;;;;1.27;0.93;;;17.30;90.70;;;;;;5062223;28;20238;-81
2021/05/09 07:28:42;;;;;;;0.87;0.70;;;17.30;90.00;;;;;;5062534;28;20615;-80
2021/05/09 07:31:08;;;;;;;1.03;0.80;;;17.40;90.30;;;;;;5062150;28;20200;-80
2021/05/09 07:33:34;;;;;;;0.87;0.67;;;17.50;90.60;;;;;;5062729;28;20187;-81
2021/05/09 07:35:59;;;;;;;3.17;0.80;;;17.70;89.00;;;;;;5079368;28;20560;-80
2021/05/09 07:38:25;;;;;;;0.67;0.50;;;18.00;88.70;;;;;;5079180;28;20529;-81
2021/05/09 07:40:51;;;;;;;3.13;0.90;;;18.10;88.20;;;;;;5061888;28;20198;-80
2021/05/09 07:43:18;;;;;;;2.07;0.57;;;18.30;86.50;;;;;;5061366;28;20195;-80
2021/05/09 07:45:44;;;;;;;0.97;0.70;;;18.60;86.50;;;;;;5061232;28;20224;-80
2021/05/09 07:48:10;;;;;;;0.60;0.60;;;18.80;83.50;;;;;;5061352;28;20208;-80
2021/05/09 07:50:37;;;;;;;1.13;0.93;;;19.10;80.80;;;;;;5061443;28;20212;-80
2021/05/09 07:53:03;;;;;;;0.60;0.60;;;19.30;80.10;;;;;;5061860;28;20181;-81
2021/05/09 07:55:29;;;;;;;1.00;0.90;;;19.50;78.80;;;;;;5061711;28;20212;-80
2021/05/09 07:57:56;;;;;;;0.80;0.80;;;19.80;78.50;;;;;;5079814;28;20161;-80
2021/05/09 08:00:23;;;;;;;3.17;0.70;;;20.40;78.10;;;;;;5078339;28;20282;-78
2021/05/09 08:02:49;;;;;;;0.80;0.80;;;21.20;75.80;;;;;;5060203;28;20180;-78
2021/05/09 08:05:20;;;;;;;1.80;0.93;;;22.00;73.50;;;;;;5060471;28;20186;-78
2021/05/09 08:07:54;;;;;;;0.60;0.60;;;22.70;69.20;;;;;;5060536;28;20263;-78
2021/05/09 08:10:24;;;;;;;1.00;0.80;;;22.90;67.20;;;;;;5060073;28;20703;-78
2021/05/09 08:12:50;;;;;;;1.20;0.90;;;23.10;65.70;;;;;;5080690;28;20208;-78
2021/05/09 08:15:17;;;;;;;1.03;0.93;;;23.50;65.10;;;;;;5062706;28;20639;-79
2021/05/09 08:17:47;;;;;;;0.80;0.80;;;23.90;63.90;;;;;;5079236;28;20175;-78
2021/05/09 08:20:14;;;;;;;1.93;0.80;;;24.40;61.90;;;;;;5078899;28;20211;-78
2021/05/09 08:22:39;;;;;;;0.93;0.87;;;24.90;60.70;;;;;;5061674;28;20177;-79
2021/05/09 08:25:09;;;;;;;0.93;0.83;;;25.30;58.80;;;;;;5079957;28;20239;-79
2021/05/09 08:27:35;;;;;;;2.90;0.83;;;25.50;57.70;;;;;;5080242;28;20263;-79
2021/05/09 08:30:02;;;;;;;0.80;0.67;;;25.80;57.30;;;;;;5061224;28;20211;-79
2021/05/09 08:32:28;;;;;;;1.83;0.80;;;26.40;55.40;;;;;;5062904;28;20643;-79
2021/05/09 08:34:54;;;;;;;0.70;0.70;;;26.10;55.00;;;;;;5083247;28;20200;-79
2021/05/09 08:37:20;;;;;;;1.40;0.87;;;26.20;55.80;;;;;;5085721;28;20165;-79
2021/05/09 08:39:46;;;;;;;1.00;0.90;;;26.40;56.20;;;;;;5084959;28;20209;-79
2021/05/09 08:42:16;;;;;;;0.70;0.70;;;26.90;54.40;;;;;;5060274;28;20209;-79
2021/05/09 08:44:47;;;;;;;1.23;0.70;;;27.80;53.60;;;;;;5077784;28;20197;-78
2021/05/09 08:47:21;;;;;;;0.63;0.63;;;28.00;51.70;;;;;;5078331;28;20154;-78
2021/05/09 08:49:51;;;;;;;0.70;0.70;;;28.60;51.00;;;;;;5078371;28;20185;-78
2021/05/09 08:52:18;;;;;;;3.17;1.40;;;28.90;47.70;;;;;;5060451;28;20222;-78
2021/05/09 08:54:45;;;;;;;1.33;0.73;;;29.20;48.70;;;;;;5078260;28;20175;-79
2021/05/09 08:57:10;;;;;;;1.20;0.80;;;29.30;48.90;;;;;;5077957;28;20540;-80
2021/05/09 08:59:37;;;;;;;0.93;0.80;;;29.20;44.00;;;;;;5078300;28;20181;-79
2021/05/09 09:02:03;;;;;;;0.87;0.60;;;28.90;47.50;;;;;;5060134;28;20210;-79
2021/05/09 09:04:43;;;;;;;2.30;0.83;;;29.10;45.60;;;;;;5059854;28;20172;-78
2021/05/09 09:07:11;;;;;;;0.80;0.60;;;28.60;44.80;;;;;;5060290;28;20183;-79
2021/05/09 09:09:43;;;;;;;1.10;0.70;;;28.40;45.20;;;;;;5072356;28;20189;-79
2021/05/09 09:12:10;;;;;;;1.40;1.00;;;28.70;43.20;;;;;;5067898;28;20225;-79
2021/05/09 09:14:53;;;;;;;4.73;0.90;;;28.50;44.20;;;;;;5062071;28;20173;-80
2021/05/09 09:17:19;;;;;;;8.00;0.90;;;28.60;43.90;;;;;;5079989;28;20160;-80
2021/05/09 09:20:12;;;;;;;0.73;0.63;;;28.70;40.20;;;;;;5079921;28;20248;-79
2021/05/09 09:22:50;;;;;;;2.53;0.73;;;28.70;41.70;;;;;;5079991;28;20157;-80
2021/05/09 09:25:17;;;;;;;0.87;0.63;;;28.90;41.30;;;;;;5061099;28;20176;-80
2021/05/09 09:27:43;;;;;;;3.23;0.83;;;28.80;39.90;;;;;;5078885;28;20192;-80
2021/05/09 09:30:10;;;;;;;1.47;1.00;;;28.50;39.80;;;;;;5078388;28;20174;-80
2021/05/09 09:32:36;;;;;;;0.70;0.70;;;28.00;40.80;;;;;;5077722;28;20685;-80
2021/05/09 09:35:02;;;;;;;2.20;0.70;;;27.80;41.90;;;;;;5059693;28;20209;-79
2021/05/09 09:37:34;;;;;;;1.10;0.70;;;27.40;41.50;;;;;;5077385;28;20174;-79
2021/05/09 09:40:02;;;;;;;2.00;0.70;;;27.00;39.70;;;;;;5077542;28;20169;-79
2021/05/09 09:42:41;;;;;;;0.80;0.60;;;27.20;42.40;;;;;;5059830;28;20178;-80
2021/05/09 09:45:16;;;;;;;3.43;0.70;;;27.60;39.30;;;;;;5077725;28;20181;-79
2021/05/09 09:48:01;;;;;;;47.33;3.83;;;28.00;39.20;;;;;;5077296;28;20236;-79
2021/05/09 09:50:49;;;;;;;1.33;0.70;;;28.40;37.80;;;;;;5076992;28;20731;-79
2021/05/09 09:53:30;;;;;;;0.70;0.60;;;28.70;37.60;;;;;;5059560;28;20179;-80
2021/05/09 09:56:16;;;;;;;0.93;0.53;;;28.50;30.60;;;;;;5055392;28;20201;-80
2021/05/09 09:58:47;;;;;;;3.10;0.63;;;28.70;36.70;;;;;;5055739;28;20188;-80
2021/05/09 10:01:22;;;;;;;0.67;0.50;;;28.80;33.00;;;;;;5056230;28;20187;-79
2021/05/09 10:03:47;;;;;;;0.90;0.77;;;28.90;38.40;;;;;;5054768;28;20179;-80
2021/05/09 10:06:14;;;;;;;2.70;0.80;;;29.20;38.10;;;;;;5076867;28;20266;-79
2021/05/09 10:08:42;;;;;;;1.27;0.73;;;29.50;37.50;;;;;;5077386;28;20183;-79
2021/05/09 10:11:08;;;;;;;2.07;0.90;;;29.60;39.20;;;;;;5077034;28;20234;-81
2021/05/09 10:13:34;;;;;;;4.50;0.80;;;29.50;36.80;;;;;;5059168;28;20188;-79
2021/05/09 10:16:02;;;;;;;1.07;0.67;;;29.30;36.40;;;;;;5077160;28;20797;-80
2021/05/09 10:18:29;;;;;;;6.37;1.67;;;29.30;38.60;;;;;;5058663;28;20200;-80
2021/05/09 10:20:55;;;;;;;2.30;0.80;;;29.40;40.70;;;;;;5077125;28;20231;-80
2021/05/09 10:23:21;;;;;;;1.97;0.90;;;29.60;40.10;;;;;;5059625;28;20181;-80
2021/05/09 10:25:55;;;;;;;2.30;0.70;;;29.40;35.60;;;;;;5055793;28;20711;-79
2021/05/09 10:28:40;;;;;;;1.67;0.93;;;29.30;35.90;;;;;;5070092;28;20546;-78
2021/05/09 10:31:07;;;;;;;2.20;0.60;;;29.30;40.40;;;;;;5075758;28;20193;-78
2021/05/09 10:33:38;;;;;;;1.53;0.80;;;29.50;36.70;;;;;;5076126;28;20180;-77
2021/05/09 10:36:10;;;;;;;0.83;0.70;;;29.80;32.30;;;;;;5075856;28;20748;-78
2021/05/09 10:39:10;;;;;;;1.00;0.70;;;29.90;35.90;;;;;;5076245;28;20192;-78
2021/05/09 10:41:58;;;;;;;0.80;0.80;;;29.90;31.70;;;;;;5076109;28;20262;-78
2021/05/09 10:44:44;;;;;;;1.50;0.83;;;29.80;33.40;;;;;;5057300;28;20717;-78
2021/05/09 10:47:31;;;;;;;2.10;1.20;;;29.90;32.30;;;;;;5057681;28;20177;-78
2021/05/09 10:50:14;;;;;;;0.70;0.70;;;29.50;34.10;;;;;;5075667;28;20168;-78
2021/05/09 10:52:45;;;;;;;0.70;0.70;;;29.50;30.30;;;;;;5074224;28;20495;-76
2021/05/09 10:55:35;;;;;;;1.20;0.70;;;29.60;33.60;;;;;;5073251;28;20197;-76
2021/05/09 10:58:12;;;;;;;0.93;0.87;;;29.40;30.10;;;;;;5074988;28;20174;-76
2021/05/09 11:00:56;;;;;;;1.40;1.20;;;29.50;36.30;;;;;;5076845;28;20194;-76
2021/05/09 11:03:37;;;;;;;1.03;0.87;;;29.90;32.10;;;;;;5059320;28;20318;-78
2021/05/09 11:06:02;;;;;;;0.80;0.80;;;29.80;31.00;;;;;;5077008;28;20173;-76
2021/05/09 11:08:51;;;;;;;2.07;0.60;;;29.90;35.20;;;;;;5078143;28;20227;-78
2021/05/09 11:11:27;;;;;;;0.73;0.70;;;29.90;32.90;;;;;;5079706;28;20197;-77
2021/05/09 11:13:59;;;;;;;2.27;1.10;;;29.30;32.00;;;;;;5079074;28;20215;-77
2021/05/09 11:16:37;;;;;;;0.73;0.50;;;29.00;37.20;;;;;;5061107;28;20208;-79
2021/05/09 11:19:11;;;;;;;1.97;0.73;;;29.30;32.40;;;;;;5080301;28;20169;-79
2021/05/09 11:21:41;;;;;;;1.33;0.60;;;29.70;33.40;;;;;;5061604;28;20682;-79
2021/05/09 11:24:17;;;;;;;0.83;0.60;;;30.30;33.40;;;;;;5062226;28;20173;-80
2021/05/09 11:26:47;;;;;;;0.53;0.50;;;31.00;33.10;;;;;;5062594;28;20256;-81
2021/05/09 11:29:15;;;;;;;0.70;0.70;;;31.40;30.80;;;;;;5081681;28;20176;-80
2021/05/09 11:31:43;;;;;;;0.67;0.60;;;31.50;31.40;;;;;;5083513;28;20215;-81
2021/05/09 11:34:10;;;;;;;0.60;0.60;;;31.60;31.80;;;;;;5076501;28;20184;-81
2021/05/09 11:36:38;;;;;;;0.80;0.70;;;31.90;30.00;;;;;;5079607;28;20201;-80
2021/05/09 11:39:20;;;;;;;2.30;0.93;;;32.30;32.00;;;;;;5061876;28;20171;-80
2021/05/09 11:41:56;;;;;;;0.63;0.60;;;32.60;29.20;;;;;;5080928;28;20190;-81
2021/05/09 11:44:26;;;;;;;0.87;0.80;;;32.40;30.00;;;;;;5061700;28;20176;-79
2021/05/09 11:46:53;;;;;;;0.60;0.60;;;32.70;30.20;;;;;;5063023;28;20173;-79
2021/05/09 11:49:20;;;;;;;0.70;0.67;;;33.20;31.30;;;;;;5080869;28;20189;-79
2021/05/09 11:51:47;;;;;;;0.80;0.60;;;33.20;30.10;;;;;;5079759;28;20216;-77
2021/05/09 11:54:13;;;;;;;0.93;0.80;;;33.60;31.60;;;;;;5059689;28;20234;-78
2021/05/09 11:56:52;;;;;;;1.17;0.67;;;33.60;30.40;;;;;;5080898;28;20201;-77
2021/05/09 11:59:32;;;;;;;1.47;0.50;;;33.50;32.30;;;;;;5080984;28;20226;-80
2021/05/09 12:02:21;;;;;;;0.80;0.70;;;33.80;32.20;;;;;;5080051;28;20192;-78
2021/05/09 12:04:59;;;;;;;0.60;0.60;;;33.80;30.70;;;;;;5079177;28;20155;-77
2021/05/09 12:07:31;;;;;;;0.80;0.60;;;34.30;31.70;;;;;;5078019;28;20166;-77
2021/05/09 12:10:08;;;;;;;0.70;0.70;;;33.90;30.10;;;;;;5077643;28;20156;-80
2021/05/09 12:12:36;;;;;;;0.80;0.80;;;33.80;31.10;;;;;;5078070;28;20163;-79
2021/05/09 12:15:05;;;;;;;2.20;0.97;;;34.00;31.40;;;;;;5078215;28;20203;-79
2021/05/09 12:17:31;;;;;;;1.30;1.00;;;34.00;30.90;;;;;;5077749;28;20161;-78
2021/05/09 12:19:57;;;;;;;2.47;1.80;;;34.00;32.60;;;;;;5077846;28;20168;-79
2021/05/09 12:22:23;;;;;;;0.77;0.70;;;34.30;31.20;;;;;;5060620;28;20198;-78
2021/05/09 12:24:57;;;;;;;0.93;0.70;;;34.50;31.00;;;;;;5059895;28;20174;-79
2021/05/09 12:27:26;;;;;;;1.87;0.77;;;34.90;31.80;;;;;;5078042;28;20552;-78
2021/05/09 12:29:54;;;;;;;1.20;1.00;;;34.80;30.70;;;;;;5078126;28;20165;-79
2021/05/09 12:32:29;;;;;;;1.10;0.90;;;34.60;29.80;;;;;;5077837;28;20174;-78
2021/05/09 12:35:07;;;;;;;0.90;0.77;;;34.90;29.50;;;;;;5059432;28;20565;-79
2021/05/09 12:37:35;;;;;;;0.80;0.70;;;34.80;31.10;;;;;;5059937;28;20179;-79
2021/05/09 12:40:20;;;;;;;1.50;1.27;;;34.40;30.40;;;;;;5077370;28;20258;-79
2021/05/09 12:43:05;;;;;;;2.40;1.00;;;34.50;30.90;;;;;;5077777;28;20489;-79
2021/05/09 12:45:45;;;;;;;1.03;0.87;;;34.70;28.60;;;;;;5077370;28;20156;-78
2021/05/09 12:48:16;;;;;;;1.00;0.80;;;34.70;30.80;;;;;;5077501;28;20669;-79
2021/05/09 12:50:46;;;;;;;0.60;0.60;;;34.50;29.40;;;;;;5059619;28;20200;-78
2021/05/09 12:53:11;;;;;;;1.37;0.80;;;34.90;30.00;;;;;;5077200;28;20641;-78
2021/05/09 12:55:37;;;;;;;1.57;0.90;;;35.30;30.20;;;;;;5076702;28;20284;-78
2021/05/09 12:58:12;;;;;;;1.00;0.73;;;35.50;29.80;;;;;;5076979;28;20516;-78